sensor_id;sensor_type;location;lat;lon;timestamp;P1;durP1;ratioP1;P2;durP2;ratioP2
54452;SDS011;40363;52.270;10.546;2023-02-17T00:02:13;31.90;;;16.67;;
54452;SDS011;40363;52.270;10.546;2023-02-17T00:04:40;32.88;;;16.70;;
54452;SDS011;40363;52.270;10.546;2023-02-17T00:07:06;32.30;;;16.35;;
54452;SDS011;40363;52.270;10.546;2023-02-17T00:09:34;27.70;;;14.98;;
54452;SDS011;40363;52.270;10.546;2023-02-17T00:12:02;31.23;;;15.93;;
54452;SDS011;40363;52.270;10.546;2023-02-17T00:14:28;32.00;;;15.68;;
54452;SDS011;40363;52.270;10.546;2023-02-17T00:16:55;32.33;;;16.23;;
54452;SDS011;40363;52.270;10.546;2023-02-17T00:19:21;32.78;;;15.52;;
54452;SDS011;40363;52.270;10.546;2023-02-17T00:21:48;31.48;;;14.98;;
54452;SDS011;40363;52.270;10.546;2023-02-17T00:24:16;32.95;;;15.98;;
54452;SDS011;40363;52.270;10.546;2023-02-17T00:26:44;31.33;;;16.25;;
54452;SDS011;40363;52.270;10.546;2023-02-17T00:29:10;31.33;;;15.60;;
54452;SDS011;40363;52.270;10.546;2023-02-17T00:31:37;29.75;;;14.73;;
54452;SDS011;40363;52.270;10.546;2023-02-17T00:34:04;27.75;;;14.90;;
54452;SDS011;40363;52.270;10.546;2023-02-17T00:36:30;31.20;;;14.20;;
54452;SDS011;40363;52.270;10.546;2023-02-17T00:38:57;33.58;;;15.20;;
54452;SDS011;40363;52.270;10.546;2023-02-17T00:41:24;29.95;;;15.23;;
54452;SDS011;40363;52.270;10.546;2023-02-17T00:43:53;29.23;;;15.07;;
54452;SDS011;40363;52.270;10.546;2023-02-17T00:46:20;28.23;;;15.30;;
54452;SDS011;40363;52.270;10.546;2023-02-17T00:48:47;26.10;;;13.18;;
54452;SDS011;40363;52.270;10.546;2023-02-17T00:51:14;27.75;;;14.93;;
54452;SDS011;40363;52.270;10.546;2023-02-17T00:53:42;27.23;;;13.60;;
54452;SDS011;40363;52.270;10.546;2023-02-17T00:56:09;26.90;;;14.25;;
54452;SDS011;40363;52.270;10.546;2023-02-17T00:58:36;29.75;;;13.73;;
54452;SDS011;40363;52.270;10.546;2023-02-17T01:01:07;27.20;;;14.75;;
54452;SDS011;40363;52.270;10.546;2023-02-17T01:03:34;29.85;;;14.32;;
54452;SDS011;40363;52.270;10.546;2023-02-17T01:06:03;25.15;;;13.98;;
54452;SDS011;40363;52.270;10.546;2023-02-17T01:08:31;24.38;;;12.88;;
54452;SDS011;40363;52.270;10.546;2023-02-17T01:10:58;27.48;;;15.23;;
54452;SDS011;40363;52.270;10.546;2023-02-17T01:13:24;27.52;;;14.93;;
54452;SDS011;40363;52.270;10.546;2023-02-17T01:15:51;25.85;;;13.50;;
54452;SDS011;40363;52.270;10.546;2023-02-17T01:18:21;26.00;;;14.63;;
54452;SDS011;40363;52.270;10.546;2023-02-17T01:20:49;29.33;;;13.85;;
54452;SDS011;40363;52.270;10.546;2023-02-17T01:23:16;26.63;;;13.32;;
54452;SDS011;40363;52.270;10.546;2023-02-17T01:25:43;28.48;;;13.38;;
54452;SDS011;40363;52.270;10.546;2023-02-17T01:28:13;31.60;;;14.32;;
54452;SDS011;40363;52.270;10.546;2023-02-17T01:30:41;29.10;;;13.32;;
54452;SDS011;40363;52.270;10.546;2023-02-17T01:33:08;25.02;;;13.27;;
54452;SDS011;40363;52.270;10.546;2023-02-17T01:35:36;23.35;;;12.20;;
54452;SDS011;40363;52.270;10.546;2023-02-17T01:38:03;25.63;;;12.80;;
54452;SDS011;40363;52.270;10.546;2023-02-17T01:40:29;25.33;;;12.73;;
54452;SDS011;40363;52.270;10.546;2023-02-17T01:42:56;25.00;;;12.43;;
54452;SDS011;40363;52.270;10.546;2023-02-17T01:45:36;24.45;;;12.77;;
54452;SDS011;40363;52.270;10.546;2023-02-17T01:48:11;24.38;;;12.40;;
54452;SDS011;40363;52.270;10.546;2023-02-17T01:50:43;24.77;;;12.30;;
54452;SDS011;40363;52.270;10.546;2023-02-17T01:53:13;25.60;;;13.05;;
54452;SDS011;40363;52.270;10.546;2023-02-17T01:55:42;20.48;;;11.07;;
54452;SDS011;40363;52.270;10.546;2023-02-17T01:58:12;26.40;;;13.13;;
54452;SDS011;40363;52.270;10.546;2023-02-17T02:00:41;23.55;;;12.68;;
54452;SDS011;40363;52.270;10.546;2023-02-17T02:03:08;30.30;;;12.60;;
54452;SDS011;40363;52.270;10.546;2023-02-17T02:05:38;24.85;;;12.57;;
54452;SDS011;40363;52.270;10.546;2023-02-17T02:08:08;28.08;;;13.82;;
54452;SDS011;40363;52.270;10.546;2023-02-17T02:10:36;23.90;;;12.73;;
54452;SDS011;40363;52.270;10.546;2023-02-17T02:13:03;23.83;;;11.98;;
54452;SDS011;40363;52.270;10.546;2023-02-17T02:15:30;23.58;;;12.20;;
54452;SDS011;40363;52.270;10.546;2023-02-17T02:18:07;23.65;;;12.85;;
54452;SDS011;40363;52.270;10.546;2023-02-17T02:24:02;24.10;;;12.80;;
54452;SDS011;40363;52.270;10.546;2023-02-17T02:29:55;21.88;;;12.18;;
54452;SDS011;40363;52.270;10.546;2023-02-17T02:32:44;26.73;;;13.13;;
54452;SDS011;40363;52.270;10.546;2023-02-17T02:35:17;22.83;;;12.60;;
54452;SDS011;40363;52.270;10.546;2023-02-17T02:37:51;19.48;;;12.27;;
54452;SDS011;40363;52.270;10.546;2023-02-17T02:40:22;26.15;;;12.35;;
54452;SDS011;40363;52.270;10.546;2023-02-17T02:42:52;22.67;;;11.70;;
54452;SDS011;40363;52.270;10.546;2023-02-17T02:45:21;25.90;;;14.57;;
54452;SDS011;40363;52.270;10.546;2023-02-17T02:47:49;22.98;;;12.48;;
54452;SDS011;40363;52.270;10.546;2023-02-17T02:50:18;23.88;;;12.40;;
54452;SDS011;40363;52.270;10.546;2023-02-17T02:52:57;23.95;;;12.73;;
54452;SDS011;40363;52.270;10.546;2023-02-17T02:55:38;26.23;;;12.10;;
54452;SDS011;40363;52.270;10.546;2023-02-17T02:58:16;24.67;;;12.48;;
54452;SDS011;40363;52.270;10.546;2023-02-17T03:00:48;24.23;;;12.73;;
54452;SDS011;40363;52.270;10.546;2023-02-17T03:03:23;20.90;;;11.57;;
54452;SDS011;40363;52.270;10.546;2023-02-17T03:06:02;22.88;;;12.60;;
54452;SDS011;40363;52.270;10.546;2023-02-17T03:08:35;21.63;;;12.02;;
54452;SDS011;40363;52.270;10.546;2023-02-17T03:11:06;28.00;;;13.63;;
54452;SDS011;40363;52.270;10.546;2023-02-17T03:13:33;26.45;;;13.00;;
54452;SDS011;40363;52.270;10.546;2023-02-17T03:16:03;22.75;;;13.00;;
54452;SDS011;40363;52.270;10.546;2023-02-17T03:18:32;24.25;;;14.43;;
54452;SDS011;40363;52.270;10.546;2023-02-17T03:21:00;21.27;;;11.63;;
54452;SDS011;40363;52.270;10.546;2023-02-17T03:23:31;23.85;;;11.77;;
54452;SDS011;40363;52.270;10.546;2023-02-17T03:25:58;21.90;;;12.43;;
54452;SDS011;40363;52.270;10.546;2023-02-17T03:28:24;21.80;;;13.05;;
54452;SDS011;40363;52.270;10.546;2023-02-17T03:30:51;23.58;;;12.77;;
54452;SDS011;40363;52.270;10.546;2023-02-17T03:33:17;16.92;;;10.23;;
54452;SDS011;40363;52.270;10.546;2023-02-17T03:35:45;21.65;;;12.52;;
54452;SDS011;40363;52.270;10.546;2023-02-17T03:38:12;23.10;;;12.68;;
54452;SDS011;40363;52.270;10.546;2023-02-17T03:40:39;22.88;;;11.25;;
54452;SDS011;40363;52.270;10.546;2023-02-17T03:43:05;18.80;;;11.32;;
54452;SDS011;40363;52.270;10.546;2023-02-17T03:45:34;22.35;;;11.35;;
54452;SDS011;40363;52.270;10.546;2023-02-17T03:48:01;20.33;;;12.68;;
54452;SDS011;40363;52.270;10.546;2023-02-17T03:50:27;20.20;;;10.50;;
54452;SDS011;40363;52.270;10.546;2023-02-17T03:52:55;20.35;;;11.65;;
54452;SDS011;40363;52.270;10.546;2023-02-17T03:55:22;21.42;;;10.88;;
54452;SDS011;40363;52.270;10.546;2023-02-17T03:57:48;21.65;;;11.07;;
54452;SDS011;40363;52.270;10.546;2023-02-17T04:00:15;22.58;;;11.93;;
54452;SDS011;40363;52.270;10.546;2023-02-17T04:02:42;21.88;;;11.15;;
54452;SDS011;40363;52.270;10.546;2023-02-17T04:05:09;18.35;;;10.63;;
54452;SDS011;40363;52.270;10.546;2023-02-17T04:07:36;19.40;;;10.70;;
54452;SDS011;40363;52.270;10.546;2023-02-17T04:10:05;22.85;;;11.40;;
54452;SDS011;40363;52.270;10.546;2023-02-17T04:12:32;20.88;;;11.38;;
54452;SDS011;40363;52.270;10.546;2023-02-17T04:14:59;22.67;;;12.45;;
54452;SDS011;40363;52.270;10.546;2023-02-17T04:17:25;23.98;;;11.77;;
54452;SDS011;40363;52.270;10.546;2023-02-17T04:19:52;21.05;;;10.25;;
54452;SDS011;40363;52.270;10.546;2023-02-17T04:22:18;19.33;;;11.00;;
54452;SDS011;40363;52.270;10.546;2023-02-17T04:24:45;21.50;;;10.75;;
54452;SDS011;40363;52.270;10.546;2023-02-17T04:27:13;18.63;;;10.98;;
54452;SDS011;40363;52.270;10.546;2023-02-17T04:29:39;20.77;;;11.05;;
54452;SDS011;40363;52.270;10.546;2023-02-17T04:32:06;18.33;;;10.98;;
54452;SDS011;40363;52.270;10.546;2023-02-17T04:34:33;19.60;;;10.93;;
54452;SDS011;40363;52.270;10.546;2023-02-17T04:36:59;20.95;;;10.02;;
54452;SDS011;40363;52.270;10.546;2023-02-17T04:39:26;18.35;;;10.65;;
54452;SDS011;40363;52.270;10.546;2023-02-17T04:41:52;17.85;;;10.15;;
54452;SDS011;40363;52.270;10.546;2023-02-17T04:44:20;17.48;;;10.93;;
54452;SDS011;40363;52.270;10.546;2023-02-17T04:46:47;18.13;;;9.60;;
54452;SDS011;40363;52.270;10.546;2023-02-17T04:49:13;23.17;;;11.55;;
54452;SDS011;40363;52.270;10.546;2023-02-17T04:51:40;18.60;;;10.52;;
54452;SDS011;40363;52.270;10.546;2023-02-17T04:54:06;18.35;;;10.52;;
54452;SDS011;40363;52.270;10.546;2023-02-17T04:56:33;18.33;;;10.65;;
54452;SDS011;40363;52.270;10.546;2023-02-17T04:59:00;19.45;;;11.15;;
54452;SDS011;40363;52.270;10.546;2023-02-17T05:01:27;16.13;;;9.27;;
54452;SDS011;40363;52.270;10.546;2023-02-17T05:03:54;20.52;;;12.25;;
54452;SDS011;40363;52.270;10.546;2023-02-17T05:06:21;18.08;;;10.65;;
54452;SDS011;40363;52.270;10.546;2023-02-17T05:08:47;20.52;;;10.70;;
54452;SDS011;40363;52.270;10.546;2023-02-17T05:11:14;20.17;;;11.35;;
54452;SDS011;40363;52.270;10.546;2023-02-17T05:13:41;20.88;;;11.32;;
54452;SDS011;40363;52.270;10.546;2023-02-17T05:16:08;18.27;;;9.93;;
54452;SDS011;40363;52.270;10.546;2023-02-17T05:18:35;17.05;;;10.30;;
54452;SDS011;40363;52.270;10.546;2023-02-17T05:21:02;19.02;;;11.68;;
54452;SDS011;40363;52.270;10.546;2023-02-17T05:23:30;19.05;;;10.80;;
54452;SDS011;40363;52.270;10.546;2023-02-17T05:25:57;24.83;;;11.82;;
54452;SDS011;40363;52.270;10.546;2023-02-17T05:28:23;20.00;;;11.27;;
54452;SDS011;40363;52.270;10.546;2023-02-17T05:30:50;20.85;;;10.77;;
54452;SDS011;40363;52.270;10.546;2023-02-17T05:33:17;21.90;;;12.02;;
54452;SDS011;40363;52.270;10.546;2023-02-17T05:35:44;23.20;;;11.68;;
54452;SDS011;40363;52.270;10.546;2023-02-17T05:38:11;21.05;;;10.85;;
54452;SDS011;40363;52.270;10.546;2023-02-17T05:40:38;22.40;;;12.45;;
54452;SDS011;40363;52.270;10.546;2023-02-17T05:43:04;18.55;;;11.07;;
54452;SDS011;40363;52.270;10.546;2023-02-17T05:45:31;19.35;;;12.07;;
54452;SDS011;40363;52.270;10.546;2023-02-17T05:47:57;19.80;;;11.32;;
54452;SDS011;40363;52.270;10.546;2023-02-17T05:50:24;21.27;;;11.10;;
54452;SDS011;40363;52.270;10.546;2023-02-17T05:52:52;21.10;;;12.05;;
54452;SDS011;40363;52.270;10.546;2023-02-17T05:55:19;17.00;;;10.95;;
54452;SDS011;40363;52.270;10.546;2023-02-17T05:57:46;18.38;;;11.15;;
54452;SDS011;40363;52.270;10.546;2023-02-17T06:00:13;17.67;;;10.80;;
54452;SDS011;40363;52.270;10.546;2023-02-17T06:02:41;19.27;;;10.15;;
54452;SDS011;40363;52.270;10.546;2023-02-17T06:05:07;18.83;;;11.48;;
54452;SDS011;40363;52.270;10.546;2023-02-17T06:07:34;20.40;;;10.93;;
54452;SDS011;40363;52.270;10.546;2023-02-17T06:10:02;18.58;;;10.45;;
54452;SDS011;40363;52.270;10.546;2023-02-17T06:12:29;20.80;;;10.73;;
54452;SDS011;40363;52.270;10.546;2023-02-17T06:14:56;17.70;;;9.70;;
54452;SDS011;40363;52.270;10.546;2023-02-17T06:17:22;20.50;;;10.38;;
54452;SDS011;40363;52.270;10.546;2023-02-17T06:19:49;15.80;;;10.02;;
54452;SDS011;40363;52.270;10.546;2023-02-17T06:22:15;19.80;;;10.32;;
54452;SDS011;40363;52.270;10.546;2023-02-17T06:24:42;20.40;;;11.20;;
54452;SDS011;40363;52.270;10.546;2023-02-17T06:27:10;16.55;;;10.10;;
54452;SDS011;40363;52.270;10.546;2023-02-17T06:29:36;19.98;;;10.90;;
54452;SDS011;40363;52.270;10.546;2023-02-17T06:32:03;17.85;;;9.85;;
54452;SDS011;40363;52.270;10.546;2023-02-17T06:34:30;17.83;;;9.27;;
54452;SDS011;40363;52.270;10.546;2023-02-17T06:36:56;17.55;;;9.35;;
54452;SDS011;40363;52.270;10.546;2023-02-17T06:39:23;18.60;;;10.60;;
54452;SDS011;40363;52.270;10.546;2023-02-17T06:41:50;17.05;;;9.60;;
54452;SDS011;40363;52.270;10.546;2023-02-17T06:44:18;16.85;;;9.43;;
54452;SDS011;40363;52.270;10.546;2023-02-17T06:46:45;17.17;;;9.73;;
54452;SDS011;40363;52.270;10.546;2023-02-17T06:49:11;18.80;;;10.77;;
54452;SDS011;40363;52.270;10.546;2023-02-17T06:51:39;20.05;;;10.38;;
54452;SDS011;40363;52.270;10.546;2023-02-17T06:54:06;15.50;;;9.02;;
54452;SDS011;40363;52.270;10.546;2023-02-17T06:56:32;13.40;;;8.25;;
54452;SDS011;40363;52.270;10.546;2023-02-17T06:59:00;17.65;;;8.82;;
54452;SDS011;40363;52.270;10.546;2023-02-17T07:01:28;16.60;;;9.48;;
54452;SDS011;40363;52.270;10.546;2023-02-17T07:03:55;14.85;;;8.95;;
54452;SDS011;40363;52.270;10.546;2023-02-17T07:06:22;16.50;;;10.20;;
54452;SDS011;40363;52.270;10.546;2023-02-17T07:08:49;15.55;;;9.63;;
54452;SDS011;40363;52.270;10.546;2023-02-17T07:11:16;15.88;;;9.43;;
54452;SDS011;40363;52.270;10.546;2023-02-17T07:13:43;15.02;;;7.93;;
54452;SDS011;40363;52.270;10.546;2023-02-17T07:16:11;15.52;;;8.25;;
54452;SDS011;40363;52.270;10.546;2023-02-17T07:18:40;16.92;;;9.07;;
54452;SDS011;40363;52.270;10.546;2023-02-17T07:21:07;17.45;;;10.15;;
54452;SDS011;40363;52.270;10.546;2023-02-17T07:23:34;15.07;;;8.48;;
54452;SDS011;40363;52.270;10.546;2023-02-17T07:26:02;16.52;;;8.50;;
54452;SDS011;40363;52.270;10.546;2023-02-17T07:28:29;16.13;;;8.25;;
54452;SDS011;40363;52.270;10.546;2023-02-17T07:30:56;16.60;;;10.18;;
54452;SDS011;40363;52.270;10.546;2023-02-17T07:33:23;12.77;;;8.20;;
54452;SDS011;40363;52.270;10.546;2023-02-17T07:35:50;14.25;;;7.97;;
54452;SDS011;40363;52.270;10.546;2023-02-17T07:38:18;13.05;;;7.95;;
54452;SDS011;40363;52.270;10.546;2023-02-17T07:40:44;15.38;;;8.82;;
54452;SDS011;40363;52.270;10.546;2023-02-17T07:43:11;17.98;;;9.40;;
54452;SDS011;40363;52.270;10.546;2023-02-17T07:45:37;15.68;;;8.50;;
54452;SDS011;40363;52.270;10.546;2023-02-17T07:48:04;13.68;;;8.40;;
54452;SDS011;40363;52.270;10.546;2023-02-17T07:50:31;17.30;;;9.63;;
54452;SDS011;40363;52.270;10.546;2023-02-17T07:52:59;16.50;;;10.25;;
54452;SDS011;40363;52.270;10.546;2023-02-17T07:55:25;15.38;;;9.07;;
54452;SDS011;40363;52.270;10.546;2023-02-17T07:57:52;16.35;;;9.45;;
54452;SDS011;40363;52.270;10.546;2023-02-17T08:00:19;15.48;;;8.57;;
54452;SDS011;40363;52.270;10.546;2023-02-17T08:02:45;16.15;;;10.38;;
54452;SDS011;40363;52.270;10.546;2023-02-17T08:05:12;17.40;;;9.25;;
54452;SDS011;40363;52.270;10.546;2023-02-17T08:07:39;14.75;;;9.52;;
54452;SDS011;40363;52.270;10.546;2023-02-17T08:10:09;14.55;;;8.07;;
54452;SDS011;40363;52.270;10.546;2023-02-17T08:12:55;14.60;;;8.90;;
54452;SDS011;40363;52.270;10.546;2023-02-17T08:15:39;15.65;;;7.57;;
54452;SDS011;40363;52.270;10.546;2023-02-17T08:18:05;17.98;;;8.95;;
54452;SDS011;40363;52.270;10.546;2023-02-17T08:20:32;13.80;;;8.15;;
54452;SDS011;40363;52.270;10.546;2023-02-17T08:22:59;12.63;;;8.13;;
54452;SDS011;40363;52.270;10.546;2023-02-17T08:25:31;12.23;;;7.80;;
54452;SDS011;40363;52.270;10.546;2023-02-17T08:27:58;14.18;;;7.97;;
54452;SDS011;40363;52.270;10.546;2023-02-17T08:30:24;13.00;;;7.13;;
54452;SDS011;40363;52.270;10.546;2023-02-17T08:32:51;10.68;;;6.40;;
54452;SDS011;40363;52.270;10.546;2023-02-17T08:35:18;11.25;;;7.35;;
54452;SDS011;40363;52.270;10.546;2023-02-17T08:37:46;11.50;;;7.15;;
54452;SDS011;40363;52.270;10.546;2023-02-17T08:40:13;10.05;;;6.38;;
54452;SDS011;40363;52.270;10.546;2023-02-17T08:42:41;13.73;;;7.07;;
54452;SDS011;40363;52.270;10.546;2023-02-17T08:45:08;12.13;;;6.93;;
54452;SDS011;40363;52.270;10.546;2023-02-17T08:47:35;9.98;;;5.90;;
54452;SDS011;40363;52.270;10.546;2023-02-17T08:50:02;8.93;;;6.20;;
54452;SDS011;40363;52.270;10.546;2023-02-17T08:52:30;6.78;;;5.60;;
54452;SDS011;40363;52.270;10.546;2023-02-17T08:54:57;11.70;;;6.60;;
54452;SDS011;40363;52.270;10.546;2023-02-17T08:57:24;9.55;;;6.88;;
54452;SDS011;40363;52.270;10.546;2023-02-17T08:59:52;10.23;;;6.30;;
54452;SDS011;40363;52.270;10.546;2023-02-17T09:02:19;12.57;;;7.43;;
54452;SDS011;40363;52.270;10.546;2023-02-17T09:04:46;9.65;;;6.25;;
54452;SDS011;40363;52.270;10.546;2023-02-17T09:07:13;13.18;;;7.50;;
54452;SDS011;40363;52.270;10.546;2023-02-17T09:09:40;10.10;;;6.72;;
54452;SDS011;40363;52.270;10.546;2023-02-17T09:12:07;11.98;;;6.88;;
54452;SDS011;40363;52.270;10.546;2023-02-17T09:14:34;9.43;;;6.85;;
54452;SDS011;40363;52.270;10.546;2023-02-17T09:17:02;9.77;;;5.72;;
54452;SDS011;40363;52.270;10.546;2023-02-17T09:19:29;10.25;;;6.60;;
54452;SDS011;40363;52.270;10.546;2023-02-17T09:21:56;10.88;;;6.90;;
54452;SDS011;40363;52.270;10.546;2023-02-17T09:24:22;10.60;;;6.60;;
54452;SDS011;40363;52.270;10.546;2023-02-17T09:26:49;10.73;;;6.45;;
54452;SDS011;40363;52.270;10.546;2023-02-17T09:29:16;10.88;;;6.65;;
54452;SDS011;40363;52.270;10.546;2023-02-17T09:31:42;9.95;;;6.93;;
54452;SDS011;40363;52.270;10.546;2023-02-17T09:34:11;10.75;;;6.80;;
54452;SDS011;40363;52.270;10.546;2023-02-17T09:36:39;14.10;;;6.85;;
54452;SDS011;40363;52.270;10.546;2023-02-17T09:39:07;11.15;;;6.68;;
54452;SDS011;40363;52.270;10.546;2023-02-17T09:41:36;9.20;;;6.15;;
54452;SDS011;40363;52.270;10.546;2023-02-17T09:44:10;10.63;;;7.10;;
54452;SDS011;40363;52.270;10.546;2023-02-17T09:46:45;9.18;;;6.25;;
54452;SDS011;40363;52.270;10.546;2023-02-17T09:49:18;11.52;;;6.57;;
54452;SDS011;40363;52.270;10.546;2023-02-17T09:51:48;9.80;;;7.57;;
54452;SDS011;40363;52.270;10.546;2023-02-17T09:54:22;12.77;;;6.97;;
54452;SDS011;40363;52.270;10.546;2023-02-17T09:56:54;8.60;;;6.28;;
54452;SDS011;40363;52.270;10.546;2023-02-17T09:59:23;10.10;;;6.72;;
54452;SDS011;40363;52.270;10.546;2023-02-17T10:01:54;10.52;;;6.20;;
54452;SDS011;40363;52.270;10.546;2023-02-17T10:04:24;8.50;;;6.03;;
54452;SDS011;40363;52.270;10.546;2023-02-17T10:09:27;9.30;;;6.13;;
54452;SDS011;40363;52.270;10.546;2023-02-17T10:12:00;10.38;;;6.10;;
54452;SDS011;40363;52.270;10.546;2023-02-17T10:14:30;9.48;;;6.88;;
54452;SDS011;40363;52.270;10.546;2023-02-17T10:17:01;11.82;;;7.45;;
54452;SDS011;40363;52.270;10.546;2023-02-17T10:19:35;8.13;;;6.00;;
54452;SDS011;40363;52.270;10.546;2023-02-17T10:22:07;10.80;;;6.15;;
54452;SDS011;40363;52.270;10.546;2023-02-17T10:24:38;8.10;;;5.60;;
54452;SDS011;40363;52.270;10.546;2023-02-17T10:27:17;7.93;;;5.20;;
54452;SDS011;40363;52.270;10.546;2023-02-17T10:29:55;7.82;;;5.57;;
54452;SDS011;40363;52.270;10.546;2023-02-17T10:32:36;9.32;;;5.75;;
54452;SDS011;40363;52.270;10.546;2023-02-17T10:35:13;9.18;;;5.40;;
54452;SDS011;40363;52.270;10.546;2023-02-17T10:37:45;7.43;;;5.20;;
54452;SDS011;40363;52.270;10.546;2023-02-17T10:40:18;7.47;;;5.50;;
54452;SDS011;40363;52.270;10.546;2023-02-17T10:42:47;8.75;;;5.10;;
54452;SDS011;40363;52.270;10.546;2023-02-17T10:45:18;8.52;;;5.55;;
54452;SDS011;40363;52.270;10.546;2023-02-17T10:47:51;8.80;;;5.28;;
54452;SDS011;40363;52.270;10.546;2023-02-17T10:50:24;12.25;;;6.28;;
54452;SDS011;40363;52.270;10.546;2023-02-17T10:52:51;10.48;;;5.57;;
54452;SDS011;40363;52.270;10.546;2023-02-17T10:55:22;8.50;;;5.50;;
54452;SDS011;40363;52.270;10.546;2023-02-17T10:57:57;9.43;;;5.35;;
54452;SDS011;40363;52.270;10.546;2023-02-17T11:00:30;7.18;;;5.05;;
54452;SDS011;40363;52.270;10.546;2023-02-17T11:02:57;8.30;;;5.25;;
54452;SDS011;40363;52.270;10.546;2023-02-17T11:05:26;8.80;;;5.70;;
54452;SDS011;40363;52.270;10.546;2023-02-17T11:07:55;7.43;;;5.18;;
54452;SDS011;40363;52.270;10.546;2023-02-17T11:10:25;8.93;;;5.97;;
54452;SDS011;40363;52.270;10.546;2023-02-17T11:12:54;9.55;;;5.90;;
54452;SDS011;40363;52.270;10.546;2023-02-17T11:15:23;10.25;;;5.80;;
54452;SDS011;40363;52.270;10.546;2023-02-17T11:17:53;9.82;;;6.35;;
54452;SDS011;40363;52.270;10.546;2023-02-17T11:20:29;9.35;;;5.78;;
54452;SDS011;40363;52.270;10.546;2023-02-17T11:22:59;10.55;;;6.43;;
54452;SDS011;40363;52.270;10.546;2023-02-17T11:25:32;8.63;;;6.38;;
54452;SDS011;40363;52.270;10.546;2023-02-17T11:28:02;9.20;;;6.10;;
54452;SDS011;40363;52.270;10.546;2023-02-17T11:30:31;12.70;;;6.00;;
54452;SDS011;40363;52.270;10.546;2023-02-17T11:33:10;10.40;;;5.88;;
54452;SDS011;40363;52.270;10.546;2023-02-17T11:35:47;9.07;;;6.38;;
54452;SDS011;40363;52.270;10.546;2023-02-17T11:38:16;9.35;;;5.78;;
54452;SDS011;40363;52.270;10.546;2023-02-17T11:40:50;9.05;;;5.30;;
54452;SDS011;40363;52.270;10.546;2023-02-17T11:43:19;10.32;;;5.57;;
54452;SDS011;40363;52.270;10.546;2023-02-17T11:45:48;7.97;;;5.35;;
54452;SDS011;40363;52.270;10.546;2023-02-17T11:48:29;9.13;;;6.18;;
54452;SDS011;40363;52.270;10.546;2023-02-17T11:53:44;8.30;;;5.38;;
54452;SDS011;40363;52.270;10.546;2023-02-17T11:56:16;7.78;;;4.85;;
54452;SDS011;40363;52.270;10.546;2023-02-17T11:58:49;8.38;;;5.15;;
54452;SDS011;40363;52.270;10.546;2023-02-17T12:01:31;9.30;;;5.00;;
54452;SDS011;40363;52.270;10.546;2023-02-17T12:06:53;7.05;;;4.90;;
54452;SDS011;40363;52.270;10.546;2023-02-17T12:09:32;8.70;;;5.10;;
54452;SDS011;40363;52.270;10.546;2023-02-17T12:12:08;8.48;;;4.43;;
54452;SDS011;40363;52.270;10.546;2023-02-17T12:14:50;7.00;;;4.60;;
54452;SDS011;40363;52.270;10.546;2023-02-17T12:17:25;7.22;;;4.88;;
54452;SDS011;40363;52.270;10.546;2023-02-17T12:20:04;8.88;;;5.60;;
54452;SDS011;40363;52.270;10.546;2023-02-17T12:22:44;6.85;;;5.13;;
54452;SDS011;40363;52.270;10.546;2023-02-17T12:25:24;9.02;;;4.70;;
54452;SDS011;40363;52.270;10.546;2023-02-17T12:27:55;7.53;;;5.07;;
54452;SDS011;40363;52.270;10.546;2023-02-17T12:30:38;10.43;;;5.85;;
54452;SDS011;40363;52.270;10.546;2023-02-17T12:33:24;7.38;;;4.53;;
54452;SDS011;40363;52.270;10.546;2023-02-17T12:36:07;8.60;;;6.63;;
54452;SDS011;40363;52.270;10.546;2023-02-17T12:38:40;6.82;;;5.07;;
54452;SDS011;40363;52.270;10.546;2023-02-17T12:41:10;10.80;;;5.15;;
54452;SDS011;40363;52.270;10.546;2023-02-17T12:43:41;9.50;;;4.90;;
54452;SDS011;40363;52.270;10.546;2023-02-17T12:46:14;8.05;;;5.30;;
54452;SDS011;40363;52.270;10.546;2023-02-17T12:48:43;6.78;;;4.63;;
54452;SDS011;40363;52.270;10.546;2023-02-17T12:51:16;9.02;;;5.30;;
54452;SDS011;40363;52.270;10.546;2023-02-17T12:53:48;6.47;;;4.57;;
54452;SDS011;40363;52.270;10.546;2023-02-17T12:59:24;9.52;;;5.13;;
54452;SDS011;40363;52.270;10.546;2023-02-17T13:01:54;9.05;;;4.88;;
54452;SDS011;40363;52.270;10.546;2023-02-17T13:04:25;9.43;;;6.30;;
54452;SDS011;40363;52.270;10.546;2023-02-17T13:06:57;8.93;;;5.57;;
54452;SDS011;40363;52.270;10.546;2023-02-17T13:09:33;10.88;;;5.75;;
54452;SDS011;40363;52.270;10.546;2023-02-17T13:12:28;8.57;;;6.05;;
54452;SDS011;40363;52.270;10.546;2023-02-17T13:14:58;10.40;;;6.22;;
54452;SDS011;40363;52.270;10.546;2023-02-17T13:17:27;8.20;;;4.85;;
54452;SDS011;40363;52.270;10.546;2023-02-17T13:20:00;9.82;;;5.50;;
54452;SDS011;40363;52.270;10.546;2023-02-17T13:22:30;14.13;;;7.35;;
54452;SDS011;40363;52.270;10.546;2023-02-17T13:24:58;9.32;;;6.57;;
54452;SDS011;40363;52.270;10.546;2023-02-17T13:27:30;9.85;;;6.85;;
54452;SDS011;40363;52.270;10.546;2023-02-17T13:30:00;11.73;;;7.10;;
54452;SDS011;40363;52.270;10.546;2023-02-17T13:32:28;10.32;;;6.50;;
54452;SDS011;40363;52.270;10.546;2023-02-17T13:35:00;12.32;;;7.05;;
54452;SDS011;40363;52.270;10.546;2023-02-17T13:37:40;11.60;;;6.63;;
54452;SDS011;40363;52.270;10.546;2023-02-17T13:40:32;12.48;;;7.50;;
54452;SDS011;40363;52.270;10.546;2023-02-17T13:43:08;11.73;;;7.80;;
54452;SDS011;40363;52.270;10.546;2023-02-17T13:45:41;11.60;;;7.75;;
54452;SDS011;40363;52.270;10.546;2023-02-17T13:48:11;13.38;;;8.07;;
54452;SDS011;40363;52.270;10.546;2023-02-17T13:50:42;14.90;;;9.10;;
54452;SDS011;40363;52.270;10.546;2023-02-17T13:53:19;11.02;;;8.20;;
54452;SDS011;40363;52.270;10.546;2023-02-17T13:55:50;17.80;;;9.43;;
54452;SDS011;40363;52.270;10.546;2023-02-17T13:58:21;14.70;;;9.68;;
54452;SDS011;40363;52.270;10.546;2023-02-17T14:00:48;15.07;;;9.63;;
54452;SDS011;40363;52.270;10.546;2023-02-17T14:03:17;17.40;;;10.88;;
54452;SDS011;40363;52.270;10.546;2023-02-17T14:05:47;17.67;;;11.60;;
54452;SDS011;40363;52.270;10.546;2023-02-17T14:08:16;19.23;;;10.48;;
54452;SDS011;40363;52.270;10.546;2023-02-17T14:10:45;17.02;;;11.48;;
54452;SDS011;40363;52.270;10.546;2023-02-17T14:13:13;19.38;;;12.43;;
54452;SDS011;40363;52.270;10.546;2023-02-17T14:15:51;19.45;;;11.13;;
54452;SDS011;40363;52.270;10.546;2023-02-17T14:18:27;18.98;;;12.40;;
54452;SDS011;40363;52.270;10.546;2023-02-17T14:21:00;15.35;;;9.95;;
54452;SDS011;40363;52.270;10.546;2023-02-17T14:23:28;13.75;;;8.93;;
54452;SDS011;40363;52.270;10.546;2023-02-17T14:26:09;13.43;;;9.02;;
54452;SDS011;40363;52.270;10.546;2023-02-17T14:28:39;14.70;;;9.52;;
54452;SDS011;40363;52.270;10.546;2023-02-17T14:31:09;14.85;;;9.50;;
54452;SDS011;40363;52.270;10.546;2023-02-17T14:33:37;16.02;;;8.75;;
54452;SDS011;40363;52.270;10.546;2023-02-17T14:36:04;13.40;;;8.43;;
54452;SDS011;40363;52.270;10.546;2023-02-17T14:38:35;11.13;;;7.07;;
54452;SDS011;40363;52.270;10.546;2023-02-17T14:41:05;13.68;;;8.18;;
54452;SDS011;40363;52.270;10.546;2023-02-17T14:43:33;12.68;;;8.40;;
54452;SDS011;40363;52.270;10.546;2023-02-17T14:46:01;12.32;;;8.02;;
54452;SDS011;40363;52.270;10.546;2023-02-17T14:48:27;12.25;;;7.00;;
54452;SDS011;40363;52.270;10.546;2023-02-17T14:50:54;14.35;;;7.90;;